Willow Beach, Arizona
Current Conditions -  °F | °C
As of 4:51 AM on Wednesday 22 Oct 2014 (Local Time) from KIGM Reporting Station
Clear Clear  
Wind Chill: 54°   Ceiling: Unl
Heat Index: 54°   Visibility: 10mi
Dew Point: 40°   Wind: 3mph
Humidity: 59%   Direction: 210°SSW
Pressure: 30"   Gusts: NA
Location:  35.19°N, 114.05°W
Report Text: KIGM 221151Z AUTO 21003KT 10SM CLR 12/04 A3000 RMK AO2 SLP102 T01220044 10161 20111 53006
Loading
Personal Weather Stations






























Interactive Weather Map
Tropical Storm Tracking
New forecast layout! Learn more

10-Day Weather Forecast

Advertisements
Track Severe Weather on mobile